Main page
METAR-TAF:

METAR-TAF

Airports :

Cairo International Airport

Cairo, Egypt

latitude: 30-08N, longitude: 031-24E, elevation: 64 m

Current weather observation

The report was made 21 minutes ago, at 00:30 UTC
Wind 5 kt from the East/Northeast
Temperature 19°C
Humidity 78%
Pressure 1019 hPa
Visibility: 6000 m

METAR: HECA 210030Z 07005KT 6000 NSC 19/15 Q1019 NOSIG

Time: 02:51 (00:51 UTC)

Forecast

The report was made 1 hour and 51 minutes ago, at 23:00 UTC
Forecast valid from 21 at 00 UTC to 22 at 06 UTC
Wind 8 kt from the Northeast
Visibility 10 km or more
no clouds below 1500 m and no cumulonimbus
Temporary
from 21 at 00 UTC to 21 at 06 UTC
Wind 3 kt from variable directions
Visibility: 4000 m
haze

TAF: HECA 202300Z 2100/2206 04008KT CAVOK TEMPO 2100/2106 VRB03KT 4000 HZ NSC

Weather observations and forecasts of more than 4000 airports (METAR and TAF reports).

The available stations are represented by yellow and red dots on the map.

Hover mouse over dot to see the name of the station.

Then click to see weather observations and forecasts.

To change the map : click on the green buttons with a black cross to zoom in, on the green button with a dash to zoom out, or on the green arrows for adjacent maps.


METAR-TAF: